Wednesday, January 17, 2018, 7:11 PM EST
Back to Local

KAUG, Augusta State Airport

Location: Augusta, ME, United States Lat: 44.317
Local Time: 7:11 PM EST ( 0:11 GMT) Lon: -69.8
Time Zone: US/Eastern Elev: 351 ft

Show me the last for .
Show Decoded

2018-01-17 18:53 METAR KAUG 172353Z AUTO 36006KT 4SM -SN BR BKN046 OVC065 M04/M06 A3008 RMK AO2
                 SLP191 P0000 60005 T10441056 11039 21044 58022 =
2018-01-17 18:28 METAR KAUG 172328Z AUTO 36006KT 3SM -SN BR OVC034 M04/M06 A3010 RMK AO2 P0000
                 T10441056 =
2018-01-17 18:21 METAR KAUG 172321Z AUTO 35007KT 2 1/2SM -SN BR OVC030 M04/M06 A3010 RMK AO2
                 P0000 T10441056 =
2018-01-17 17:53 METAR KAUG 172253Z AUTO 36006KT 2SM -SN BR OVC029 M04/M06 A3011 RMK AO2 SLP203
                 P0001 T10391056 =
2018-01-17 16:57 METAR KAUG 172157Z AUTO 36007KT 2 1/2SM -SN BR SCT023 BKN033 OVC043 M04/M06
                 A3012 RMK AO2 P0000 T10391056 =
2018-01-17 16:53 METAR KAUG 172153Z AUTO 36006KT 3SM -SN BR BKN023 BKN031 OVC040 M04/M06 A3013
                 RMK AO2 SLP208 P0000 T10391056 =
2018-01-17 16:40 METAR KAUG 172140Z AUTO 36007KT 3SM -SN BR BKN021 BKN030 OVC036 M04/M06 A3013
                 RMK AO2 P0000 T10391056 =
2018-01-17 16:32 METAR KAUG 172132Z AUTO 02007KT 2SM -SN BR SCT021 BKN030 OVC038 M04/M06 A3013
                 RMK AO2 P0000 T10391056 =
2018-01-17 16:24 METAR KAUG 172124Z AUTO 01008KT 1 3/4SM -SN BR BKN022 BKN030 OVC048 M04/M06
                 A3013 RMK AO2 P0000 T10391056 =
2018-01-17 15:53 METAR KAUG 172053Z AUTO 01006KT 2 1/2SM -SN BR FEW021 BKN049 OVC060 M04/M06
                 A3014 RMK AO2 SLP214 P0000 60004 T10391056 56026 =
2018-01-17 15:46 METAR KAUG 172046Z AUTO 01006KT 1 3/4SM -SN BR FEW007 SCT022 OVC040 M04/M06
                 A3015 RMK AO2 P0000 T10391056 =
2018-01-17 15:39 METAR KAUG 172039Z AUTO 01007KT 1 1/2SM -SN BR FEW007 BKN021 OVC030 M04/M06
                 A3015 RMK AO2 P0000 T10391056 =
2018-01-17 15:16 METAR KAUG 172016Z AUTO 36008KT 2 1/2SM -SN BR FEW007 BKN022 OVC060 M04/M06
                 A3016 RMK AO2 P0000 T10391056 =
2018-01-17 15:03 METAR KAUG 172003Z AUTO 01006KT 2SM -SN BR BKN034 BKN050 OVC060 M04/M06 A3016
                 RMK AO2 P0000 T10391056 =
2018-01-17 14:53 METAR KAUG 171953Z AUTO 01006KT 1 1/4SM -SN BR BKN027 BKN037 OVC070 M04/M05
                 A3016 RMK AO2 SLP221 P0001 T10391050 =
2018-01-17 14:46 METAR KAUG 171946Z AUTO 02006KT 1SM -SN BR BKN023 OVC035 M04/M05 A3016 RMK AO2
                 P0001 T10391050 =
2018-01-17 13:53 METAR KAUG 171853Z AUTO 02007KT 1/2SM SN FZFG VV015 M04/M06 A3019 RMK AO2 SLP229
                 P0003 T10391056 =
2018-01-17 13:28 METAR KAUG 171828Z AUTO 01008KT 3/4SM -SN BR VV015 M04/M06 A3020 RMK AO2 P0002
                 T10441056 =
2018-01-17 12:53 METAR KAUG 171753Z AUTO 35005KT 1/2SM SN FZFG VV013 M04/M06 A3022 RMK AO2 SLP240
                 P0002 60009 T10441056 11044 21061 56029 =
2018-01-17 12:50 METAR KAUG 171750Z AUTO 34005KT 1/2SM SN FZFG VV013 M04/M06 A3022 RMK AO2 P0002
                 =
2018-01-17 12:20 METAR KAUG 171720Z AUTO 34005KT 3/4SM -SN BR FEW005 OVC018 M04/M06 A3024 RMK AO2
                 P0000 T10441061 =
2018-01-17 12:04 METAR KAUG 171704Z AUTO 34006KT 1SM -SN BR FEW005 OVC020 M05/M06 A3025 RMK AO2
                 P0000 T10501061 =
2018-01-17 11:53 METAR KAUG 171653Z AUTO 34006KT 3/4SM -SN BR FEW005 OVC018 M05/M06 A3026 RMK AO2
                 SLP254 P0002 T10501061 =
2018-01-17 11:22 METAR KAUG 171622Z AUTO 36006KT 3/4SM -SN BR OVC019 M04/M06 A3029 RMK AO2 P0001
                 T10441061 =
2018-01-17 10:53 METAR KAUG 171553Z AUTO 36006KT 1 1/2SM -SN BR OVC021 M04/M06 A3031 RMK AO2
                 SLP269 P0001 T10441061 =
2018-01-17 10:37 METAR KAUG 171537Z AUTO 01005KT 1SM -SN BR OVC020 M05/M06 A3031 RMK AO2 P0001
                 T10501061 =
2018-01-17 10:13 METAR KAUG 171513Z AUTO 35006KT 3/4SM -SN BR OVC020 M05/M06 A3033 RMK AO2 P0000
                 T10501061 =
2018-01-17 09:53 METAR KAUG 171453Z AUTO 35006KT 1SM -SN BR OVC021 M05/M06 A3033 RMK AO2 SLP279
                 P0002 60004 T10501061 56008 =
2018-01-17 09:50 METAR KAUG 171450Z AUTO 35005KT 1SM -SN BR OVC021 M05/M06 A3034 RMK AO2 P0002 =
2018-01-17 09:24 METAR KAUG 171424Z AUTO 01004KT 3/4SM -SN BR OVC021 M06/M07 A3034 RMK AO2 P0001
                 T10561067 =
2018-01-17 09:03 METAR KAUG 171403Z AUTO 02003KT 1SM -SN BR OVC022 M06/M07 A3035 RMK AO2 P0000
                 T10561067 =
2018-01-17 08:53 METAR KAUG 171353Z AUTO 01003KT 3/4SM -SN BR OVC021 M06/M07 A3034 RMK AO2 SLP281
                 P0002 T10561072 =
2018-01-17 08:18 METAR KAUG 171318Z AUTO 34004KT 3/4SM -SN BR VV016 M06/M07 A3035 RMK AO2 P0001
                 T10611072 =
2018-01-17 07:53 METAR KAUG 171253Z AUTO 34006KT 1 1/2SM -SN BR OVC020 M06/M07 A3036 RMK AO2
                 SLP287 P0000 T10611072 =
2018-01-17 07:03 METAR KAUG 171203Z AUTO 34004KT 2SM -SN BR BKN023 OVC040 M06/M07 A3036 RMK AO2
                 P0000 T10611072 =
2018-01-17 06:53 METAR KAUG 171153Z AUTO 35003KT 2 1/2SM -SN BR SCT023 OVC038 M06/M07 A3036 RMK
                 AO2 SLP288 P0001 60010 70011 T10611072 11061 21067 58005 =
2018-01-17 06:37 METAR KAUG 171137Z AUTO 34003KT 2SM -SN BR OVC038 M06/M07 A3037 RMK AO2 P0001
                 T10611072 =
2018-01-17 06:26 METAR KAUG 171126Z AUTO 35003KT 1 3/4SM -SN BR OVC036 M06/M07 A3037 RMK AO2
                 P0001 T10611072 =
2018-01-17 06:13 METAR KAUG 171113Z AUTO 33003KT 2SM -SN BR OVC032 M06/M07 A3038 RMK AO2 P0001
                 T10611072 =
2018-01-17 05:53 METAR KAUG 171053Z AUTO 34004KT 1 1/4SM -SN BR OVC020 M06/M07 A3037 RMK AO2
                 SLP292 P0003 T10611072 =
2018-01-17 04:53 METAR KAUG 170953Z AUTO 00000KT 1 1/2SM -SN BR BKN018 OVC024 M06/M07 A3038 RMK
                 AO2 SLP294 P0002 T10611072 =
2018-01-17 03:53 METAR KAUG 170853Z AUTO 00000KT 1 1/2SM -SN BR OVC026 M06/M07 A3038 RMK AO2
                 SLP294 P0000 60004 T10611072 58007 =
2018-01-17 03:43 METAR KAUG 170843Z AUTO 00000KT 1 3/4SM -SN BR OVC028 M06/M07 A3038 RMK AO2
                 P0000 T10611072 =
2018-01-17 03:33 METAR KAUG 170833Z AUTO 00000KT 2SM -SN BR OVC028 M06/M07 A3038 RMK AO2 P0000
                 T10611072 =
2018-01-17 02:53 METAR KAUG 170753Z AUTO 00000KT 1 1/2SM -SN BR OVC022 M06/M07 A3039 RMK AO2
                 SLP299 P0002 T10611072 =
2018-01-17 02:23 METAR KAUG 170723Z AUTO 00000KT 1 3/4SM -SN BR OVC026 M07/M08 A3039 RMK AO2
                 P0000 T10671078 =
2018-01-17 02:14 METAR KAUG 170714Z AUTO 00000KT 1 3/4SM -SN BR OVC030 M07/M08 A3039 RMK AO2
                 P0000 T10671078 =
2018-01-17 02:00 METAR KAUG 170700Z AUTO 00000KT 2SM -SN BR OVC029 M07/M08 A3039 RMK AO2 P0000
                 T10671078 =
2018-01-17 01:53 METAR KAUG 170653Z AUTO 00000KT 1 3/4SM -SN BR OVC028 M07/M08 A3039 RMK AO2
                 SLP298 P0002 T10671078 =
2018-01-17 01:43 METAR KAUG 170643Z AUTO 00000KT 1 3/4SM -SN BR OVC028 M07/M08 A3039 RMK AO2
                 P0002 T10671078 =
2018-01-17 01:34 METAR KAUG 170634Z AUTO 34003KT 2SM -SN BR OVC028 M07/M08 A3040 RMK AO2 P0002
                 T10671078 =
2018-01-17 01:26 METAR KAUG 170626Z AUTO 00000KT 1 3/4SM -SN BR OVC030 M07/M08 A3040 RMK AO2
                 P0002 T10671078 =
2018-01-17 00:53 METAR KAUG 170553Z AUTO 00000KT 1 1/2SM -SN BR OVC028 M07/M08 A3040 RMK AO2
                 SLP301 P0000 60001 T10671078 11056 21067 55011 =
2018-01-17 00:49 METAR KAUG 170549Z AUTO 00000KT 1 3/4SM -SN BR OVC030 M07/M08 A3040 RMK AO2
                 P0000 =
2018-01-17 00:04 METAR KAUG 170504Z AUTO 00000KT 2SM -SN BR OVC030 M06/M07 A3041 RMK AO2 P0000
                 T10611072 =
2018-01-16 23:53 METAR KAUG 170453Z AUTO 00000KT 1 1/2SM -SN BR OVC028 M06/M08 A3042 RMK AO2
                 SLP306 P0001 T10611078 410441111 =
2018-01-16 23:46 METAR KAUG 170446Z AUTO 00000KT 1 3/4SM -SN BR OVC030 M06/M08 A3042 RMK AO2
                 P0001 T10611078 =
2018-01-16 23:27 METAR KAUG 170427Z AUTO 00000KT 2 1/2SM -SN BR OVC040 M06/M08 A3043 RMK AO2
                 P0000 T10611078 =
2018-01-16 23:18 METAR KAUG 170418Z AUTO 00000KT 3SM -SN BR OVC044 M06/M08 A3043 RMK AO2 P0000
                 T10611078 =
2018-01-16 23:07 METAR KAUG 170407Z AUTO 00000KT 2 1/2SM -SN BR OVC048 M06/M08 A3043 RMK AO2
                 P0000 T10611083 =
2018-01-16 22:53 METAR KAUG 170353Z AUTO 00000KT 4SM -SN BR BKN050 OVC070 M06/M08 A3043 RMK AO2
                 SNB43 SLP312 P0000 T10611083 =
2018-01-16 21:53 METAR KAUG 170253Z AUTO 00000KT 9SM BKN055 OVC070 M06/M09 A3045 RMK AO2 SLP319
                 T10611089 55001 =
2018-01-16 20:53 METAR KAUG 170153Z AUTO 00000KT 10SM OVC085 M06/M09 A3044 RMK AO2 SLP316
                 T10611094 =
2018-01-16 19:53 METAR KAUG 170053Z AUTO 00000KT 10SM BKN110 M06/M10 A3045 RMK AO2 SLP318
                 T10611100 =

Support USWX by starting your Amazon purchase here.